LiveATC.Net - Listen to live air traffic control over the Internet!


ICAO: CYMX  IATA: YMX   Airport: Montreal-Mirabel International Airport
City: Montreal   State/Province: Quebec
Country: Canada   Continent: North America
CYMX METAR Weather: CYMX 060900Z 31003KT 270V350 20SM BKN027 BKN060 16/15 A2980 RMK SC7SC1 SC TR SLP096 DENSITY ALT 600FT
CYMX Flight Activity (FlightAware)

CYMX Gnd/Twr/Radio
Feed Status: UP   Listeners: 1
Listen in your browser - HTML5 player (in browser, HTML5)
Click here to listen with your own player (launches your MP3 player)
Archive Access: CYMX Gnd/Twr/Radio
FacilityFrequency
Mirabel Ground121.800
Mirabel Tower/Radio119.100

NOTICE

Unauthorized use prohibited. See LiveATC.net Terms of Service


Airport/ARTCC Code
Frequency Search
(e.g., 124.400, 128.75)
Site-wide search
 


Browse Feeds
Top 50 Feeds
HF Oceanic Feeds
Coverage Map
Bad Weather Areas

LiveATC FAQ
Offer LiveATC feed
Contact LiveATC.net
Press Inquiries

LiveATC on iPhone
LiveATC on Android

LiveATC Mobile
(Mobile browser)

ATC Audio Archives
Interesting Recordings

LiveATC Forums


Home Page
About LiveATC.net


Terms of Use
Privacy Policy

AIRMETs/SIGMETs

FAA Airport Status
NAS Status
Arrival Demand


Server Software By:
Icecast.org
Liquidsoap